Time;durP1;ratioP1;P1;durP2;ratioP2;P2;SDS_P1;SDS_P2;PMS_P1;PMS_P2;Temp;Humidity;BMP_temperature;BMP_pressure;BME280_temperature;BME280_humidity;BME280_pressure;Samples;Min_cycle;Max_cycle;Signal;HPM_P1;HPM_P2
2023/07/28 00:01:59;;;;;;;4.43;4.03;;;18.90;99.90;;;;;;5043698;28;20934;-70
2023/07/28 00:04:26;;;;;;;5.80;4.10;;;18.90;99.90;;;;;;5035034;28;20517;-70
2023/07/28 00:06:53;;;;;;;5.00;4.40;;;18.80;99.90;;;;;;5040772;28;20548;-72
2023/07/28 00:09:19;;;;;;;4.27;3.93;;;18.90;99.90;;;;;;5039177;28;20920;-70
2023/07/28 00:11:46;;;;;;;6.73;5.20;;;18.90;99.90;;;;;;5044902;28;20486;-71
2023/07/28 00:14:15;;;;;;;6.93;4.77;;;18.90;99.90;;;;;;5033295;28;20498;-71
2023/07/28 00:16:42;;;;;;;5.53;5.03;;;18.80;99.90;;;;;;5047246;28;20816;-71
2023/07/28 00:19:08;;;;;;;5.20;4.70;;;18.80;99.90;;;;;;5044767;28;20465;-71
2023/07/28 00:21:35;;;;;;;5.93;5.33;;;18.90;99.90;;;;;;5040108;28;20464;-71
2023/07/28 00:24:02;;;;;;;4.50;4.10;;;18.90;99.90;;;;;;5043362;28;20837;-70
2023/07/28 00:26:29;;;;;;;10.13;5.90;;;18.90;99.90;;;;;;5045404;28;20453;-69
2023/07/28 00:28:57;;;;;;;5.03;4.53;;;18.80;99.90;;;;;;5041280;28;20781;-72
2023/07/28 00:31:26;;;;;;;7.83;6.20;;;18.80;99.90;;;;;;5037043;28;20818;-72
2023/07/28 00:33:52;;;;;;;6.47;5.87;;;18.80;99.90;;;;;;5041257;28;20810;-71
2023/07/28 00:36:19;;;;;;;12.93;7.90;;;18.80;99.90;;;;;;5048973;28;20537;-71
2023/07/28 00:38:46;;;;;;;10.40;7.00;;;18.80;99.90;;;;;;5047254;28;21311;-72
2023/07/28 00:41:13;;;;;;;7.87;6.37;;;18.80;99.90;;;;;;5046164;28;20451;-71
2023/07/28 00:43:40;;;;;;;9.80;6.37;;;18.80;99.90;;;;;;5052013;28;20902;-70
2023/07/28 00:46:07;;;;;;;9.77;7.20;;;18.80;99.90;;;;;;5047655;28;20477;-70
2023/07/28 00:48:36;;;;;;;7.27;6.57;;;18.70;99.90;;;;;;5049695;28;20544;-71
2023/07/28 00:51:03;;;;;;;15.60;8.80;;;18.80;99.90;;;;;;5051449;28;20474;-71
2023/07/28 00:53:30;;;;;;;12.90;8.73;;;18.80;99.90;;;;;;5043605;28;20487;-72
2023/07/28 00:55:57;;;;;;;11.50;7.50;;;18.80;99.90;;;;;;5049781;28;20481;-72
2023/07/28 00:58:24;;;;;;;10.67;8.53;;;18.90;99.90;;;;;;5048100;28;20516;-72
2023/07/28 01:00:51;;;;;;;9.07;7.20;;;18.80;99.90;;;;;;5050384;28;20820;-69
2023/07/28 01:03:20;;;;;;;11.93;9.50;;;18.80;99.90;;;;;;5051875;28;20564;-71
2023/07/28 01:05:56;;;;;;;11.00;7.77;;;18.80;99.90;;;;;;5052194;28;20446;-72
2023/07/28 01:08:31;;;;;;;11.60;8.63;;;18.90;99.90;;;;;;5040134;28;20548;-72
2023/07/28 01:10:58;;;;;;;8.93;7.33;;;18.90;99.90;;;;;;5047369;28;20485;-72
2023/07/28 01:13:25;;;;;;;13.73;8.93;;;18.90;99.90;;;;;;5042483;28;20972;-72
2023/07/28 01:15:51;;;;;;;12.07;9.63;;;18.90;99.90;;;;;;5043084;28;20486;-73
2023/07/28 01:18:18;;;;;;;12.27;9.87;;;18.90;99.90;;;;;;5050073;28;20785;-73
2023/07/28 01:20:47;;;;;;;10.20;9.20;;;18.90;99.90;;;;;;5045083;28;20452;-72
2023/07/28 01:23:20;;;;;;;14.43;11.20;;;18.90;99.90;;;;;;5046545;28;20476;-71
2023/07/28 01:26:03;;;;;;;11.37;8.53;;;18.90;99.90;;;;;;5050131;28;20446;-72
2023/07/28 01:28:32;;;;;;;20.60;12.53;;;18.80;99.90;;;;;;5047370;28;20446;-69
2023/07/28 01:31:01;;;;;;;17.93;11.90;;;18.90;99.90;;;;;;5050882;28;20869;-70
2023/07/28 01:33:28;;;;;;;13.13;11.83;;;18.80;99.90;;;;;;5051883;28;20469;-70
2023/07/28 01:35:55;;;;;;;13.23;11.60;;;18.80;99.90;;;;;;5050271;28;20573;-72
2023/07/28 01:38:22;;;;;;;13.90;11.10;;;18.80;99.90;;;;;;5052049;28;20512;-72
2023/07/28 01:40:49;;;;;;;10.93;9.67;;;18.80;99.90;;;;;;5049036;28;20453;-71
2023/07/28 01:43:16;;;;;;;15.13;11.60;;;18.90;99.90;;;;;;5044958;28;20475;-71
2023/07/28 01:45:44;;;;;;;13.37;11.10;;;18.80;99.90;;;;;;5034318;28;20996;-71
2023/07/28 01:48:11;;;;;;;19.60;12.50;;;18.80;99.90;;;;;;5035898;28;20950;-71
2023/07/28 01:50:38;;;;;;;18.17;13.50;;;18.80;99.90;;;;;;5050512;28;20533;-70
2023/07/28 01:53:06;;;;;;;17.20;13.33;;;18.70;99.90;;;;;;5036918;28;20553;-71
2023/07/28 01:55:32;;;;;;;14.13;11.70;;;18.70;99.90;;;;;;5039345;28;20506;-70
2023/07/28 01:58:01;;;;;;;19.13;13.17;;;18.70;99.90;;;;;;5038860;28;20447;-70
2023/07/28 02:00:28;;;;;;;20.10;12.47;;;18.70;99.90;;;;;;5026253;28;20539;-73
2023/07/28 02:02:58;;;;;;;26.67;13.30;;;18.70;99.90;;;;;;5042930;28;20550;-71
2023/07/28 02:05:24;;;;;;;18.93;10.73;;;18.70;99.90;;;;;;5046728;28;20446;-70
2023/07/28 02:07:51;;;;;;;20.67;12.40;;;18.70;99.90;;;;;;5048407;28;20799;-71
2023/07/28 02:10:18;;;;;;;11.77;9.80;;;18.70;99.90;;;;;;5046840;28;20851;-72
2023/07/28 02:12:45;;;;;;;16.97;11.70;;;18.70;99.90;;;;;;5042955;28;20470;-72
2023/07/28 02:15:13;;;;;;;17.53;11.20;;;18.80;99.90;;;;;;5050488;28;21022;-70
2023/07/28 02:17:41;;;;;;;13.77;9.93;;;18.70;99.90;;;;;;5049621;28;20947;-72
2023/07/28 02:20:12;;;;;;;15.13;11.77;;;18.70;99.90;;;;;;5047172;28;20464;-72
2023/07/28 02:22:39;;;;;;;20.63;13.03;;;18.70;99.90;;;;;;5046362;28;20466;-71
2023/07/28 02:25:07;;;;;;;12.90;11.60;;;18.70;99.90;;;;;;5037912;28;20440;-72
2023/07/28 02:27:35;;;;;;;12.53;11.17;;;18.70;99.90;;;;;;5048174;28;20486;-72
2023/07/28 02:30:02;;;;;;;20.47;12.37;;;18.80;99.90;;;;;;5032438;28;20539;-72
2023/07/28 02:32:29;;;;;;;12.87;11.13;;;18.80;99.90;;;;;;5048509;28;20464;-70
2023/07/28 02:34:56;;;;;;;25.30;12.93;;;18.90;99.90;;;;;;5040657;28;20486;-70
2023/07/28 02:37:25;;;;;;;25.77;13.97;;;18.90;99.90;;;;;;5040426;28;20538;-72
2023/07/28 02:39:52;;;;;;;25.90;15.53;;;18.90;99.90;;;;;;5045471;28;20924;-71
2023/07/28 02:42:19;;;;;;;21.20;13.10;;;18.90;99.90;;;;;;5039792;28;20941;-72
2023/07/28 02:44:46;;;;;;;24.17;13.77;;;18.90;99.90;;;;;;5048039;28;20818;-70
2023/07/28 02:47:13;;;;;;;20.33;13.47;;;18.90;99.90;;;;;;5042874;28;20447;-70
2023/07/28 02:49:42;;;;;;;13.93;12.13;;;18.80;99.90;;;;;;5041409;28;20509;-72
2023/07/28 02:52:09;;;;;;;18.73;13.13;;;18.80;99.90;;;;;;5041310;28;20960;-70
2023/07/28 02:54:37;;;;;;;26.57;14.57;;;18.80;99.90;;;;;;5042609;28;20472;-70
2023/07/28 02:57:04;;;;;;;17.47;13.53;;;18.70;99.90;;;;;;5039092;28;20460;-71
2023/07/28 02:59:31;;;;;;;19.23;14.33;;;18.70;99.90;;;;;;5036628;28;20450;-69
2023/07/28 03:01:58;;;;;;;15.37;11.77;;;18.70;99.90;;;;;;5047798;28;20784;-71
2023/07/28 03:04:25;;;;;;;14.33;12.37;;;18.80;99.90;;;;;;5044437;28;20462;-70
2023/07/28 03:06:54;;;;;;;15.27;12.60;;;18.80;99.90;;;;;;5049464;28;20446;-72
2023/07/28 03:09:21;;;;;;;18.53;13.13;;;18.90;99.90;;;;;;5041311;28;20446;-71
2023/07/28 03:11:49;;;;;;;15.40;12.13;;;18.90;99.90;;;;;;5039299;28;20447;-72
2023/07/28 03:14:17;;;;;;;18.57;13.03;;;18.80;99.90;;;;;;5042400;28;20630;-71
2023/07/28 03:16:44;;;;;;;15.07;10.37;;;18.80;99.90;;;;;;5050004;28;20512;-71
2023/07/28 03:19:11;;;;;;;12.00;10.20;;;18.80;99.90;;;;;;5049013;28;20454;-69
2023/07/28 03:21:38;;;;;;;10.53;9.47;;;18.90;99.90;;;;;;5047824;28;20544;-73
2023/07/28 03:24:05;;;;;;;16.37;12.83;;;18.90;99.90;;;;;;5049311;28;20474;-71
2023/07/28 03:26:32;;;;;;;14.50;10.77;;;19.00;99.90;;;;;;5043464;28;20435;-71
2023/07/28 03:29:01;;;;;;;13.37;9.87;;;18.90;99.90;;;;;;5048789;28;20454;-72
2023/07/28 03:31:28;;;;;;;18.30;8.93;;;18.90;99.90;;;;;;5042487;28;20522;-70
2023/07/28 03:33:54;;;;;;;10.47;7.47;;;18.90;99.90;;;;;;5048214;28;20542;-72
2023/07/28 03:36:21;;;;;;;12.60;8.83;;;18.90;99.90;;;;;;5050152;28;20477;-72
2023/07/28 03:38:48;;;;;;;9.77;8.20;;;18.90;99.90;;;;;;5044439;28;20446;-72
2023/07/28 03:41:15;;;;;;;13.37;8.07;;;18.90;99.90;;;;;;5047783;28;20948;-72
2023/07/28 03:43:42;;;;;;;13.33;8.63;;;18.90;99.90;;;;;;5037015;28;20550;-72
2023/07/28 03:46:11;;;;;;;8.60;6.63;;;18.80;99.90;;;;;;5049471;28;20859;-71
2023/07/28 03:48:38;;;;;;;7.47;5.63;;;18.80;99.90;;;;;;5046269;28;20540;-71
2023/07/28 03:51:05;;;;;;;6.90;4.83;;;18.80;99.90;;;;;;5043616;28;20450;-70
2023/07/28 03:53:34;;;;;;;6.23;4.77;;;18.80;99.90;;;;;;5034642;28;21097;-71
2023/07/28 03:56:01;;;;;;;5.60;4.03;;;18.90;99.90;;;;;;5036671;28;20487;-70
2023/07/28 03:58:28;;;;;;;5.33;4.27;;;18.90;99.90;;;;;;5047719;28;20445;-71
2023/07/28 04:00:55;;;;;;;6.83;6.07;;;18.90;99.90;;;;;;5047404;28;20522;-72
2023/07/28 04:03:22;;;;;;;8.70;7.80;;;18.80;99.90;;;;;;5052242;28;20964;-71
2023/07/28 04:05:49;;;;;;;14.10;9.70;;;18.80;99.90;;;;;;5040619;28;20445;-70
2023/07/28 04:08:16;;;;;;;11.60;7.83;;;18.90;99.90;;;;;;5046138;28;20561;-70
2023/07/28 04:10:43;;;;;;;10.30;9.23;;;18.80;99.90;;;;;;5038280;28;20485;-72
2023/07/28 04:13:10;;;;;;;17.93;12.03;;;18.90;99.90;;;;;;5044302;28;20975;-72
2023/07/28 04:15:37;;;;;;;18.23;13.37;;;18.90;99.90;;;;;;5049454;28;20478;-70
2023/07/28 04:18:04;;;;;;;17.83;14.90;;;18.90;99.90;;;;;;5051183;28;20955;-72
2023/07/28 04:20:32;;;;;;;15.70;12.50;;;18.90;99.90;;;;;;5049743;28;20924;-73
2023/07/28 04:22:59;;;;;;;18.33;13.20;;;18.90;99.90;;;;;;5041883;28;20470;-71
2023/07/28 04:25:26;;;;;;;21.60;15.30;;;18.80;99.90;;;;;;5045217;28;20523;-71
2023/07/28 04:27:52;;;;;;;15.13;12.67;;;18.90;99.90;;;;;;5047674;28;20537;-72
2023/07/28 04:30:19;;;;;;;22.57;15.40;;;18.90;99.90;;;;;;5051116;28;20995;-71
2023/07/28 04:32:46;;;;;;;16.83;13.60;;;18.90;99.90;;;;;;5046705;28;20469;-72
2023/07/28 04:35:13;;;;;;;15.30;13.70;;;18.90;99.90;;;;;;5047123;28;20891;-71
2023/07/28 04:37:43;;;;;;;22.13;14.23;;;18.90;99.90;;;;;;5048357;28;20446;-71
2023/07/28 04:40:10;;;;;;;28.77;17.73;;;18.90;99.90;;;;;;5048190;28;20535;-71
2023/07/28 04:42:37;;;;;;;29.83;16.07;;;18.90;99.90;;;;;;5044974;28;21252;-70
2023/07/28 04:45:05;;;;;;;17.37;12.73;;;18.90;99.90;;;;;;5044251;28;20532;-72
2023/07/28 04:47:31;;;;;;;22.90;16.03;;;18.90;99.90;;;;;;5033318;28;20447;-72
2023/07/28 04:49:58;;;;;;;23.67;15.27;;;18.90;99.90;;;;;;5038832;28;20534;-71
2023/07/28 04:52:25;;;;;;;17.50;12.87;;;18.90;99.90;;;;;;5032479;28;20925;-70
2023/07/28 04:54:53;;;;;;;22.17;14.67;;;19.00;99.90;;;;;;5049168;28;20450;-71
2023/07/28 04:57:20;;;;;;;14.53;12.10;;;19.00;99.90;;;;;;5044604;28;20988;-71
2023/07/28 04:59:47;;;;;;;15.43;12.03;;;19.00;99.90;;;;;;5048947;28;20549;-72
2023/07/28 05:02:14;;;;;;;16.70;11.57;;;19.00;99.90;;;;;;5042653;28;20438;-72
2023/07/28 05:04:41;;;;;;;16.93;13.30;;;19.10;99.90;;;;;;5044486;28;20533;-73
2023/07/28 05:07:08;;;;;;;17.70;11.20;;;19.00;99.90;;;;;;5051406;28;20446;-73
2023/07/28 05:09:35;;;;;;;17.73;13.17;;;19.00;99.90;;;;;;5044521;28;20811;-70
2023/07/28 05:12:04;;;;;;;21.20;13.10;;;19.00;99.90;;;;;;5037102;28;20537;-70
2023/07/28 05:14:31;;;;;;;13.67;12.00;;;19.00;99.90;;;;;;5043762;28;20478;-70
2023/07/28 05:16:58;;;;;;;18.10;11.97;;;19.10;99.90;;;;;;5033974;28;20578;-69
2023/07/28 05:19:25;;;;;;;20.43;13.57;;;19.10;99.90;;;;;;5043435;28;20446;-71
2023/07/28 05:21:52;;;;;;;26.43;12.97;;;19.10;99.90;;;;;;5033062;28;20447;-71
2023/07/28 05:24:19;;;;;;;21.63;12.10;;;19.10;99.90;;;;;;5044336;28;20466;-71
2023/07/28 05:26:46;;;;;;;22.90;13.23;;;19.10;99.90;;;;;;5049065;28;20452;-73
2023/07/28 05:29:14;;;;;;;14.27;10.03;;;19.00;99.90;;;;;;5036443;28;20462;-74
2023/07/28 05:31:41;;;;;;;16.53;10.97;;;19.00;99.90;;;;;;5038589;28;20442;-72
2023/07/28 05:34:08;;;;;;;15.67;10.80;;;19.10;99.90;;;;;;5032235;28;20506;-71
2023/07/28 05:36:35;;;;;;;10.97;8.20;;;19.10;99.90;;;;;;5039942;28;20470;-70
2023/07/28 05:39:02;;;;;;;9.40;8.23;;;19.10;99.90;;;;;;5034182;28;20948;-71
2023/07/28 05:41:29;;;;;;;14.70;10.03;;;19.10;99.90;;;;;;5038058;28;20549;-72
2023/07/28 05:43:56;;;;;;;12.20;11.00;;;19.10;99.90;;;;;;5041076;28;20495;-72
2023/07/28 05:46:24;;;;;;;17.13;12.97;;;19.10;99.90;;;;;;5025355;28;20806;-72
2023/07/28 05:48:51;;;;;;;25.37;14.20;;;19.10;99.90;;;;;;5035963;28;20474;-72
2023/07/28 05:51:18;;;;;;;18.13;14.10;;;19.10;99.90;;;;;;5037676;28;20460;-72
2023/07/28 05:53:45;;;;;;;24.77;16.70;;;19.10;99.90;;;;;;5027043;28;21073;-72
2023/07/28 05:56:12;;;;;;;17.37;14.53;;;19.20;99.90;;;;;;5044256;28;20574;-71
2023/07/28 05:58:38;;;;;;;19.30;14.07;;;19.20;99.90;;;;;;5032748;28;20550;-76
2023/07/28 06:01:05;;;;;;;27.60;17.57;;;19.20;99.90;;;;;;5041058;28;20865;-70
2023/07/28 06:03:34;;;;;;;22.93;16.87;;;19.30;99.90;;;;;;5036908;28;20481;-70
2023/07/28 06:05:59;;;;;;;35.00;21.53;;;19.40;99.90;;;;;;5047246;28;20442;-69
2023/07/28 06:08:26;;;;;;;36.80;24.53;;;19.40;99.90;;;;;;5029363;28;20446;-70
2023/07/28 06:10:53;;;;;;;30.93;21.90;;;19.40;99.90;;;;;;5025322;28;20268;-71
2023/07/28 06:13:20;;;;;;;35.67;25.87;;;19.40;99.90;;;;;;5045149;28;20505;-72
2023/07/28 06:15:48;;;;;;;37.00;25.53;;;19.30;99.90;;;;;;5041059;28;20529;-74
2023/07/28 06:18:16;;;;;;;42.40;28.47;;;19.30;99.90;;;;;;5027066;28;20451;-71
2023/07/28 06:20:45;;;;;;;30.53;24.47;;;19.40;99.90;;;;;;5030612;28;20449;-71
2023/07/28 06:23:12;;;;;;;40.77;28.23;;;19.40;99.90;;;;;;5040562;28;20480;-70
2023/07/28 06:25:43;;;;;;;34.03;26.40;;;19.50;99.90;;;;;;5031733;28;20810;-71
2023/07/28 06:28:10;;;;;;;33.30;24.20;;;19.50;99.90;;;;;;5050737;28;20506;-71
2023/07/28 06:30:37;;;;;;;31.43;23.77;;;19.50;99.90;;;;;;5039129;28;20446;-71
2023/07/28 06:33:04;;;;;;;34.70;25.77;;;19.50;99.90;;;;;;5042618;28;20466;-71
2023/07/28 06:35:31;;;;;;;39.10;27.73;;;19.40;99.90;;;;;;5050808;28;20469;-71
2023/07/28 06:38:00;;;;;;;38.20;26.27;;;19.30;99.90;;;;;;5050409;28;20482;-71
2023/07/28 06:40:27;;;;;;;28.47;22.70;;;19.40;99.90;;;;;;5050476;28;20797;-69
2023/07/28 06:42:53;;;;;;;27.23;23.80;;;19.40;99.90;;;;;;5032819;28;20659;-71
2023/07/28 06:45:21;;;;;;;29.70;25.17;;;19.50;99.90;;;;;;5032545;28;20533;-70
2023/07/28 06:47:48;;;;;;;35.30;25.67;;;19.50;99.90;;;;;;5040727;28;20455;-70
2023/07/28 06:50:15;;;;;;;33.50;26.10;;;19.60;99.90;;;;;;5035855;28;20451;-71
2023/07/28 06:52:42;;;;;;;30.40;22.17;;;19.70;99.90;;;;;;5030313;28;20561;-71
2023/07/28 06:55:11;;;;;;;33.83;23.63;;;19.80;99.90;;;;;;5039809;28;20443;-68
2023/07/28 06:57:38;;;;;;;30.07;26.10;;;19.90;99.90;;;;;;5041630;28;20481;-72
2023/07/28 07:00:09;;;;;;;29.40;24.73;;;19.90;99.90;;;;;;5026702;28;21017;-72
2023/07/28 07:02:36;;;;;;;38.30;26.20;;;20.00;99.90;;;;;;5041636;28;20510;-72
2023/07/28 07:05:03;;;;;;;28.80;24.53;;;20.00;99.90;;;;;;5027327;28;20788;-72
2023/07/28 07:07:30;;;;;;;25.87;23.03;;;20.00;99.90;;;;;;5032896;28;20534;-71
2023/07/28 07:09:57;;;;;;;29.90;24.07;;;20.00;99.90;;;;;;5040092;28;20449;-71
2023/07/28 07:12:25;;;;;;;32.83;25.80;;;19.90;99.90;;;;;;5024302;28;20441;-71
2023/07/28 07:14:52;;;;;;;34.17;23.87;;;19.90;99.90;;;;;;5036978;28;20447;-71
2023/07/28 07:17:19;;;;;;;37.87;26.97;;;20.00;99.90;;;;;;5032514;28;20489;-72
2023/07/28 07:19:46;;;;;;;27.80;22.83;;;20.00;99.90;;;;;;5031586;28;20447;-78
2023/07/28 07:22:13;;;;;;;33.77;26.63;;;20.20;99.90;;;;;;5032608;28;20543;-74
2023/07/28 07:24:40;;;;;;;28.93;25.60;;;20.30;99.90;;;;;;5033956;28;20461;-75
2023/07/28 07:27:10;;;;;;;31.17;25.97;;;20.20;99.90;;;;;;5039140;28;20998;-73
2023/07/28 07:29:39;;;;;;;28.27;25.27;;;20.20;99.90;;;;;;5025010;28;20459;-75
2023/07/28 07:32:07;;;;;;;32.90;25.60;;;20.10;99.90;;;;;;5041978;28;20440;-74
2023/07/28 07:34:36;;;;;;;37.57;27.07;;;20.10;99.90;;;;;;5026072;28;20843;-78
2023/07/28 07:37:04;;;;;;;35.07;27.73;;;20.00;99.90;;;;;;5031063;28;20542;-71
2023/07/28 07:39:30;;;;;;;30.77;27.40;;;20.10;99.90;;;;;;5035914;28;20538;-72
2023/07/28 07:41:58;;;;;;;37.40;28.03;;;20.00;99.90;;;;;;5032012;28;20454;-71
2023/07/28 07:44:25;;;;;;;31.30;27.90;;;19.90;99.90;;;;;;5030524;28;20470;-71
2023/07/28 07:46:53;;;;;;;31.40;25.97;;;19.90;99.90;;;;;;5038220;28;20451;-72
2023/07/28 07:49:20;;;;;;;32.00;25.73;;;19.90;99.90;;;;;;5039147;28;20545;-71
2023/07/28 07:51:47;;;;;;;33.20;28.00;;;20.00;99.90;;;;;;5040677;28;20535;-72
2023/07/28 07:54:16;;;;;;;32.23;26.17;;;19.90;99.90;;;;;;5032559;28;20548;-71
2023/07/28 07:56:43;;;;;;;36.90;29.70;;;20.00;99.90;;;;;;5042605;28;20522;-71
2023/07/28 07:59:10;;;;;;;29.40;26.40;;;20.00;99.90;;;;;;5035939;28;20884;-71
2023/07/28 08:01:38;;;;;;;34.00;28.53;;;20.10;99.90;;;;;;5029534;28;21059;-73
2023/07/28 08:04:06;;;;;;;33.77;26.97;;;20.10;99.90;;;;;;5027206;28;20463;-75
2023/07/28 08:06:33;;;;;;;33.07;27.00;;;20.30;99.90;;;;;;5036077;28;20558;-75
2023/07/28 08:09:01;;;;;;;27.93;25.10;;;20.60;99.90;;;;;;5038881;28;20466;-72
2023/07/28 08:11:27;;;;;;;21.50;19.17;;;21.00;99.90;;;;;;5034100;28;21090;-74
2023/07/28 08:13:55;;;;;;;23.53;21.13;;;21.30;99.90;;;;;;5037907;28;20954;-73
2023/07/28 08:16:22;;;;;;;24.50;21.07;;;21.30;99.90;;;;;;5038383;28;22501;-75
2023/07/28 08:18:51;;;;;;;26.23;21.20;;;21.40;99.90;;;;;;5032696;28;20447;-74
2023/07/28 08:21:19;;;;;;;31.10;20.03;;;21.50;99.90;;;;;;5034602;28;20527;-72
2023/07/28 08:23:46;;;;;;;21.23;17.67;;;21.70;99.90;;;;;;5030099;28;20471;-73
2023/07/28 08:26:13;;;;;;;23.20;18.07;;;21.80;99.90;;;;;;5037804;28;20955;-71
2023/07/28 08:28:40;;;;;;;20.40;17.27;;;21.60;99.90;;;;;;5034399;28;20450;-71
2023/07/28 08:31:07;;;;;;;17.33;15.53;;;21.60;99.90;;;;;;5034961;28;20454;-73
2023/07/28 08:33:34;;;;;;;20.50;17.73;;;21.60;99.90;;;;;;5034873;28;20462;-71
2023/07/28 08:36:01;;;;;;;24.90;20.30;;;21.60;99.90;;;;;;5028370;28;20560;-72
2023/07/28 08:38:29;;;;;;;19.73;16.50;;;21.70;99.90;;;;;;5034732;28;20479;-70
2023/07/28 08:40:58;;;;;;;19.63;16.23;;;21.80;99.90;;;;;;5025052;28;20443;-73
2023/07/28 08:43:25;;;;;;;24.37;19.93;;;21.80;99.90;;;;;;5027832;28;20483;-74
2023/07/28 08:45:54;;;;;;;18.63;16.73;;;21.80;99.90;;;;;;5042709;28;20455;-72
2023/07/28 08:48:21;;;;;;;22.23;18.40;;;21.60;99.90;;;;;;5034444;28;20447;-72
2023/07/28 08:50:48;;;;;;;20.27;16.93;;;21.50;99.90;;;;;;5044007;28;20892;-74
2023/07/28 08:53:15;;;;;;;24.00;16.67;;;21.50;99.90;;;;;;5040444;28;20504;-71
2023/07/28 08:55:43;;;;;;;19.57;16.83;;;21.70;99.90;;;;;;5046055;28;20799;-72
2023/07/28 08:58:18;;;;;;;21.10;17.13;;;21.60;99.90;;;;;;5051872;28;20588;-70
2023/07/28 09:00:48;;;;;;;21.13;15.60;;;21.60;99.90;;;;;;5047743;28;20534;-72
2023/07/28 09:03:16;;;;;;;21.13;17.80;;;21.50;99.90;;;;;;5035938;28;20503;-72
2023/07/28 09:05:43;;;;;;;17.27;15.53;;;21.30;99.90;;;;;;5041475;28;20447;-71
2023/07/28 09:08:10;;;;;;;18.47;16.33;;;21.30;99.90;;;;;;5052023;28;20453;-71
2023/07/28 09:10:46;;;;;;;20.13;16.53;;;21.20;99.90;;;;;;5048932;28;20454;-70
2023/07/28 09:13:14;;;;;;;21.67;17.60;;;21.20;99.90;;;;;;5039711;28;20469;-73
2023/07/28 09:15:41;;;;;;;20.83;18.30;;;21.10;99.90;;;;;;5051269;28;20533;-72
2023/07/28 09:18:12;;;;;;;20.30;18.20;;;21.10;99.90;;;;;;5043091;28;21014;-71
2023/07/28 09:20:41;;;;;;;23.03;17.63;;;20.90;99.90;;;;;;5050903;28;20599;-73
2023/07/28 09:23:09;;;;;;;19.07;17.10;;;20.90;99.90;;;;;;5048403;28;20470;-72
2023/07/28 09:25:37;;;;;;;22.50;19.27;;;20.90;99.90;;;;;;5047906;28;20452;-72
2023/07/28 09:28:06;;;;;;;21.40;16.30;;;20.80;99.90;;;;;;5045931;28;20501;-71
2023/07/28 09:30:45;;;;;;;26.00;18.87;;;20.90;99.90;;;;;;5038040;28;20458;-70
2023/07/28 09:33:12;;;;;;;18.70;16.80;;;21.10;99.90;;;;;;5043791;28;20622;-71
2023/07/28 09:35:49;;;;;;;15.80;14.20;;;21.60;99.90;;;;;;5034260;28;20932;-72
2023/07/28 09:38:16;;;;;;;11.67;10.57;;;22.80;99.90;;;;;;5042625;28;20462;-71
2023/07/28 09:40:45;;;;;;;13.83;11.70;;;24.00;99.90;;;;;;5049680;28;20450;-71
2023/07/28 09:43:13;;;;;;;12.03;10.70;;;24.70;99.90;;;;;;5048045;28;20470;-73
2023/07/28 09:45:41;;;;;;;14.37;12.93;;;24.80;99.90;;;;;;5043998;28;20450;-72
2023/07/28 09:48:10;;;;;;;14.70;12.47;;;24.80;99.90;;;;;;5049240;28;20454;-73
2023/07/28 09:50:39;;;;;;;14.60;10.80;;;24.50;99.90;;;;;;5041857;28;20441;-72
2023/07/28 09:53:08;;;;;;;9.60;8.80;;;24.10;99.90;;;;;;5040583;28;20605;-73
2023/07/28 09:55:37;;;;;;;11.90;10.80;;;24.00;99.90;;;;;;5043848;28;20860;-73
2023/07/28 09:58:07;;;;;;;13.50;10.70;;;23.80;99.90;;;;;;5037270;28;20568;-70
2023/07/28 10:00:35;;;;;;;13.90;9.77;;;23.80;99.90;;;;;;5031955;28;20450;-72
2023/07/28 10:03:03;;;;;;;9.70;8.80;;;24.10;99.90;;;;;;5041411;28;20825;-72
2023/07/28 10:05:30;;;;;;;10.80;7.60;;;24.60;99.90;;;;;;5037260;28;20473;-71
2023/07/28 10:07:59;;;;;;;11.87;8.33;;;25.50;99.90;;;;;;5033014;28;20489;-72
2023/07/28 10:10:28;;;;;;;10.80;8.00;;;25.80;99.90;;;;;;5042802;28;20454;-71
2023/07/28 10:12:56;;;;;;;10.50;8.10;;;26.00;99.90;;;;;;5042897;28;20477;-72
2023/07/28 10:15:29;;;;;;;11.50;8.83;;;26.00;99.90;;;;;;5049062;28;20457;-74
2023/07/28 10:17:59;;;;;;;8.33;7.63;;;26.60;99.90;;;;;;5029267;28;20530;-73
2023/07/28 10:20:35;;;;;;;10.43;7.03;;;27.20;99.90;;;;;;5037498;28;20533;-73
2023/07/28 10:23:07;;;;;;;11.73;7.80;;;28.00;99.90;;;;;;5039581;28;20478;-71
2023/07/28 10:25:36;;;;;;;6.33;5.83;;;28.70;99.90;;;;;;5035566;28;20447;-73
2023/07/28 10:28:03;;;;;;;7.07;6.40;;;28.80;99.90;;;;;;5044780;28;20451;-72
2023/07/28 10:30:37;;;;;;;9.93;7.03;;;27.90;99.90;;;;;;5041377;28;20453;-71
2023/07/28 10:33:06;;;;;;;5.30;4.60;;;27.50;99.90;;;;;;5037527;28;20985;-72
2023/07/28 10:35:34;;;;;;;6.37;5.20;;;26.60;99.90;;;;;;5039179;28;20454;-71
2023/07/28 10:38:32;;;;;;;7.80;6.30;;;26.10;99.90;;;;;;5033686;28;20490;-73
2023/07/28 10:41:10;;;;;;;8.67;7.03;;;25.30;99.90;;;;;;5044697;28;20469;-72
2023/07/28 10:43:37;;;;;;;10.20;7.67;;;24.50;99.90;;;;;;5023780;28;20492;-71
2023/07/28 10:46:06;;;;;;;8.20;6.70;;;24.30;99.90;;;;;;5026234;28;20452;-72
2023/07/28 10:48:35;;;;;;;7.73;6.93;;;24.40;99.90;;;;;;5041575;28;20454;-73
2023/07/28 10:51:02;;;;;;;8.20;7.37;;;24.40;99.90;;;;;;5039523;28;20873;-72
2023/07/28 10:53:33;;;;;;;9.23;6.80;;;24.20;99.90;;;;;;5028544;28;21092;-73
2023/07/28 10:56:01;;;;;;;10.13;7.40;;;24.80;99.90;;;;;;5038621;28;20448;-73
2023/07/28 10:58:29;;;;;;;8.03;5.50;;;25.40;99.90;;;;;;5040637;28;20781;-73
2023/07/28 11:00:56;;;;;;;5.87;5.30;;;25.70;99.90;;;;;;5030913;28;20498;-73
2023/07/28 11:03:24;;;;;;;7.93;5.07;;;26.10;99.90;;;;;;5030834;28;21033;-73
2023/07/28 11:05:55;;;;;;;4.40;3.93;;;26.20;99.90;;;;;;5030931;28;20530;-73
2023/07/28 11:08:25;;;;;;;9.03;4.43;;;26.00;99.90;;;;;;5031777;28;20530;-73
2023/07/28 11:10:52;;;;;;;6.33;4.43;;;25.80;99.90;;;;;;5032030;28;20447;-73
2023/07/28 11:13:19;;;;;;;4.87;3.60;;;25.50;99.90;;;;;;5032355;28;20562;-74
2023/07/28 11:15:46;;;;;;;5.27;3.80;;;25.10;99.90;;;;;;5032743;28;20823;-73
2023/07/28 11:18:16;;;;;;;9.57;3.73;;;25.00;99.90;;;;;;5032283;28;20518;-73
2023/07/28 11:20:44;;;;;;;3.87;2.90;;;24.90;99.90;;;;;;5031838;28;20463;-72
2023/07/28 11:23:17;;;;;;;6.80;3.43;;;24.80;99.90;;;;;;5031948;28;20471;-73
2023/07/28 11:25:45;;;;;;;3.53;3.07;;;24.80;99.90;;;;;;5045546;28;20450;-74
2023/07/28 11:28:12;;;;;;;4.27;3.30;;;24.80;99.90;;;;;;5036973;28;20447;-73
2023/07/28 11:30:39;;;;;;;3.37;3.07;;;24.80;99.90;;;;;;5032668;28;20564;-72
2023/07/28 11:33:11;;;;;;;4.17;2.47;;;24.80;99.90;;;;;;5043136;28;20486;-73
2023/07/28 11:35:40;;;;;;;2.97;2.67;;;24.90;99.90;;;;;;5032161;28;20508;-73
2023/07/28 11:38:08;;;;;;;4.10;3.40;;;25.10;99.90;;;;;;5044445;28;20479;-73
2023/07/28 11:40:38;;;;;;;3.90;2.47;;;25.30;99.90;;;;;;5034391;28;20455;-73
2023/07/28 11:43:05;;;;;;;4.23;2.57;;;25.50;99.90;;;;;;5034065;28;20475;-73
2023/07/28 11:45:32;;;;;;;7.63;3.50;;;25.30;99.90;;;;;;5035996;28;20870;-73
2023/07/28 11:48:01;;;;;;;3.80;2.60;;;25.20;99.90;;;;;;5041738;28;20522;-72
2023/07/28 11:50:30;;;;;;;2.87;2.57;;;25.20;99.90;;;;;;5046608;28;20454;-73
2023/07/28 11:52:58;;;;;;;4.00;2.97;;;25.10;99.90;;;;;;5032715;28;20968;-73
2023/07/28 11:55:26;;;;;;;3.07;2.60;;;25.10;99.90;;;;;;5038866;28;20541;-73
2023/07/28 11:57:55;;;;;;;2.73;2.53;;;25.10;99.90;;;;;;5039813;28;20603;-72
2023/07/28 12:00:30;;;;;;;3.73;3.23;;;25.10;99.90;;;;;;5051255;28;20443;-72
2023/07/28 12:03:05;;;;;;;3.93;3.33;;;25.00;99.90;;;;;;5033869;28;20577;-73
2023/07/28 12:05:32;;;;;;;3.03;2.73;;;25.00;99.90;;;;;;5023847;28;20996;-72
2023/07/28 12:07:59;;;;;;;5.40;3.57;;;24.90;99.90;;;;;;5045235;28;20883;-73
2023/07/28 12:10:27;;;;;;;3.10;2.73;;;24.60;99.90;;;;;;5042004;28;20521;-72
2023/07/28 12:12:55;;;;;;;3.23;2.90;;;24.80;99.90;;;;;;5037584;28;20493;-72
2023/07/28 12:15:26;;;;;;;4.77;3.90;;;24.80;99.90;;;;;;5046278;28;20936;-72
2023/07/28 12:18:08;;;;;;;4.70;3.00;;;25.00;99.90;;;;;;5048797;28;20478;-73
2023/07/28 12:20:36;;;;;;;3.63;2.60;;;25.00;99.90;;;;;;5049091;28;20449;-72
2023/07/28 12:23:04;;;;;;;4.23;3.40;;;25.10;99.90;;;;;;5043268;28;20526;-72
2023/07/28 12:25:31;;;;;;;5.93;3.23;;;25.60;99.90;;;;;;5042120;28;20486;-73
2023/07/28 12:28:00;;;;;;;3.77;3.30;;;26.10;99.90;;;;;;5031393;28;20497;-73
2023/07/28 12:30:26;;;;;;;4.20;3.70;;;26.60;99.90;;;;;;5039635;28;21030;-73
2023/07/28 12:32:53;;;;;;;5.43;4.30;;;26.50;99.90;;;;;;5043397;28;20462;-73
2023/07/28 12:35:23;;;;;;;5.23;4.30;;;26.30;99.90;;;;;;5042880;28;20481;-73
2023/07/28 12:37:50;;;;;;;9.83;4.37;;;26.20;99.90;;;;;;5042001;28;20481;-73